createdAt,value
2022-09-03T00:00:56.676Z,3.38
2022-09-03T00:03:31.156Z,3.67
2022-09-03T00:06:13.835Z,3.28
2022-09-03T00:08:49.532Z,3.63
2022-09-03T00:11:22.573Z,4.10
2022-09-03T00:13:58.434Z,4.05
2022-09-03T00:16:32.285Z,3.88
2022-09-03T00:19:04.867Z,4.18
2022-09-03T00:21:40.674Z,4.97
2022-09-03T00:24:15.143Z,3.88
2022-09-03T00:26:49.313Z,4.20
2022-09-03T00:29:20.954Z,4.53
2022-09-03T00:31:52.734Z,4.80
2022-09-03T00:34:26.991Z,4.18
2022-09-03T00:36:57.386Z,4.07
2022-09-03T00:39:28.143Z,4.15
2022-09-03T00:42:13.288Z,4.30
2022-09-03T00:44:55.617Z,3.83
2022-09-03T00:47:31.135Z,4.38
2022-09-03T00:50:09.275Z,4.20
2022-09-03T00:52:47.616Z,4.80
2022-09-03T00:55:27.358Z,4.20
2022-09-03T00:58:11.445Z,5.00
2022-09-03T01:00:42.714Z,4.35
2022-09-03T01:03:14.586Z,4.57
2022-09-03T01:06:01.417Z,4.18
2022-09-03T01:08:52.495Z,4.72
2022-09-03T01:11:31.737Z,4.95
2022-09-03T01:14:10.326Z,4.47
2022-09-03T01:16:46.634Z,5.47
2022-09-03T01:19:45.283Z,4.90
2022-09-03T01:22:35.744Z,4.60
2022-09-03T01:25:17.742Z,4.60
2022-09-03T01:28:03.214Z,4.53
2022-09-03T01:30:34.964Z,4.20
2022-09-03T01:33:12.475Z,3.38
2022-09-03T01:35:48.332Z,3.92
2022-09-03T01:38:27.994Z,4.22
2022-09-03T01:41:24.725Z,4.15
2022-09-03T01:44:06.664Z,3.95
2022-09-03T01:46:40.391Z,4.45
2022-09-03T01:49:22.876Z,4.22
2022-09-03T01:52:03.902Z,4.15
2022-09-03T01:54:50.461Z,4.50
2022-09-03T01:57:37.025Z,4.53
2022-09-03T02:00:13.223Z,4.10
2022-09-03T02:02:43.594Z,4.25
2022-09-03T02:05:14.994Z,4.20
2022-09-03T02:07:45.425Z,3.92
2022-09-03T02:10:16.874Z,3.95
2022-09-03T02:12:49.374Z,4.35
2022-09-03T02:15:22.599Z,4.57
2022-09-03T02:17:55.574Z,4.18
2022-09-03T02:20:28.532Z,4.00
2022-09-03T02:22:58.744Z,4.32
2022-09-03T02:25:34.094Z,3.75
2022-09-03T02:28:03.692Z,3.85
2022-09-03T02:30:33.279Z,3.92
2022-09-03T02:33:02.205Z,3.83
2022-09-03T02:35:30.382Z,4.28
2022-09-03T02:37:58.756Z,4.50
2022-09-03T02:40:26.905Z,4.38
2022-09-03T02:42:55.235Z,4.10
2022-09-03T02:45:28.552Z,4.72
2022-09-03T02:48:01.302Z,4.28
2022-09-03T02:50:29.635Z,4.28
2022-09-03T02:52:58.003Z,4.50
2022-09-03T02:55:26.665Z,4.35
2022-09-03T02:57:54.944Z,4.70
2022-09-03T03:00:23.344Z,3.95
2022-09-03T03:02:52.614Z,4.72
2022-09-03T03:05:28.142Z,4.50
2022-09-03T03:07:58.604Z,5.05
2022-09-03T03:10:26.964Z,4.43
2022-09-03T03:12:55.414Z,5.03
2022-09-03T03:15:23.525Z,5.13
2022-09-03T03:17:51.832Z,5.03
2022-09-03T03:20:20.132Z,4.78
2022-09-03T03:22:50.144Z,5.40
2022-09-03T03:25:18.803Z,5.40
2022-09-03T03:27:47.744Z,5.28
2022-09-03T03:30:16.382Z,5.57
2022-09-03T03:32:45.374Z,5.97
2022-09-03T03:35:13.745Z,5.35
2022-09-03T03:37:42.501Z,5.20
2022-09-03T03:40:13.304Z,5.20
2022-09-03T03:42:41.773Z,5.68
2022-09-03T03:45:11.115Z,5.43
2022-09-03T03:47:39.695Z,4.82
2022-09-03T03:50:08.623Z,5.05
2022-09-03T03:52:37.165Z,5.47
2022-09-03T03:55:06.944Z,5.50
2022-09-03T03:57:37.417Z,5.97
2022-09-03T04:00:06.594Z,5.35
2022-09-03T04:02:42.720Z,5.50
2022-09-03T04:05:11.589Z,5.55
2022-09-03T04:07:39.884Z,5.82
2022-09-03T04:10:09.845Z,5.03
2022-09-03T04:12:40.064Z,5.20
2022-09-03T04:15:09.285Z,5.20
2022-09-03T04:17:37.731Z,5.13
2022-09-03T04:20:07.131Z,5.88
2022-09-03T04:22:35.561Z,5.75
2022-09-03T04:25:03.802Z,6.00
2022-09-03T04:28:03.897Z,5.65
2022-09-03T04:30:32.167Z,5.50
2022-09-03T04:33:00.483Z,5.18
2022-09-03T04:35:34.175Z,4.85
2022-09-03T04:38:05.851Z,4.70
2022-09-03T04:40:34.360Z,5.47
2022-09-03T04:43:03.805Z,4.72
2022-09-03T04:45:32.519Z,4.95
2022-09-03T04:48:01.611Z,4.68
2022-09-03T04:50:31.981Z,5.78
2022-09-03T04:53:07.225Z,6.15
2022-09-03T04:55:36.811Z,5.97
2022-09-03T04:58:07.788Z,6.15
2022-09-03T05:00:37.831Z,5.72
2022-09-03T05:03:06.411Z,5.75
2022-09-03T05:05:34.803Z,6.53
2022-09-03T05:08:04.381Z,5.70
2022-09-03T05:10:32.990Z,6.35
2022-09-03T05:13:02.610Z,5.32
2022-09-03T05:15:33.322Z,4.80
2022-09-03T05:18:04.080Z,5.22
2022-09-03T05:20:33.230Z,5.93
2022-09-03T05:23:04.041Z,6.10
2022-09-03T05:25:33.226Z,5.43
2022-09-03T05:28:02.042Z,4.75
2022-09-03T05:30:31.744Z,5.45
2022-09-03T05:32:59.961Z,5.40
2022-09-03T05:35:30.082Z,5.60
2022-09-03T05:37:59.480Z,5.90
2022-09-03T05:40:28.111Z,5.20
2022-09-03T05:42:59.797Z,6.22
2022-09-03T05:45:28.050Z,6.13
2022-09-03T05:48:00.721Z,6.05
2022-09-03T05:50:29.281Z,5.47
2022-09-03T05:52:59.730Z,5.78
2022-09-03T05:55:29.170Z,6.10
2022-09-03T05:57:57.572Z,6.30
2022-09-03T06:00:25.721Z,5.88
2022-09-03T06:02:54.985Z,6.47
2022-09-03T06:05:24.380Z,7.35
2022-09-03T06:07:53.222Z,6.00
2022-09-03T06:10:26.009Z,6.57
2022-09-03T06:13:03.854Z,5.85
2022-09-03T06:15:33.151Z,6.30
2022-09-03T06:18:01.751Z,6.15
2022-09-03T06:20:36.797Z,6.43
2022-09-03T06:23:05.500Z,6.75
2022-09-03T06:25:33.520Z,6.85
2022-09-03T06:28:02.542Z,6.32
2022-09-03T06:30:30.741Z,6.93
2022-09-03T06:32:59.261Z,6.25
2022-09-03T06:35:27.351Z,6.38
2022-09-03T06:38:00.483Z,6.13
2022-09-03T06:40:28.824Z,5.90
2022-09-03T06:43:02.152Z,6.07
2022-09-03T06:45:31.628Z,5.35
2022-09-03T06:47:59.970Z,6.47
2022-09-03T06:50:31.368Z,6.53
2022-09-03T06:53:05.511Z,6.30
2022-09-03T06:55:33.831Z,6.43
2022-09-03T06:58:01.929Z,5.82
2022-09-03T07:00:30.806Z,6.03
2022-09-03T07:03:00.244Z,6.38
2022-09-03T07:05:29.431Z,5.57
2022-09-03T07:07:58.333Z,6.53
2022-09-03T07:10:28.085Z,6.40
2022-09-03T07:12:57.112Z,6.20
2022-09-03T07:15:26.377Z,5.43
2022-09-03T07:17:55.331Z,5.63
2022-09-03T07:20:23.813Z,6.32
2022-09-03T07:22:52.006Z,5.70
2022-09-03T07:25:21.041Z,6.03
2022-09-03T07:27:57.621Z,5.13
2022-09-03T07:30:38.081Z,6.35
2022-09-03T07:33:11.398Z,5.82
2022-09-03T07:35:45.335Z,5.90
2022-09-03T07:38:18.282Z,5.35
2022-09-03T07:40:47.250Z,6.07
2022-09-03T07:43:17.251Z,5.80
2022-09-03T07:45:52.261Z,6.68
2022-09-03T07:48:20.841Z,5.72
2022-09-03T07:50:49.101Z,5.55
2022-09-03T07:53:23.052Z,6.75
2022-09-03T07:55:51.961Z,5.45
2022-09-03T07:58:25.041Z,6.30
2022-09-03T08:00:54.057Z,6.22
2022-09-03T08:03:24.100Z,6.40
2022-09-03T08:05:54.921Z,6.07
2022-09-03T08:08:23.906Z,6.00
2022-09-03T08:10:52.164Z,7.25
2022-09-03T08:13:22.201Z,6.40
2022-09-03T08:15:56.780Z,5.53
2022-09-03T08:18:37.481Z,5.50
2022-09-03T08:21:08.921Z,6.63
2022-09-03T08:23:39.761Z,7.97
2022-09-03T08:26:08.562Z,6.47
2022-09-03T08:28:40.723Z,6.57
2022-09-03T08:31:19.060Z,7.13
2022-09-03T08:33:55.082Z,6.20
2022-09-03T08:36:30.300Z,8.05
2022-09-03T08:39:04.529Z,6.97
2022-09-03T08:41:47.790Z,7.68
2022-09-03T08:44:27.359Z,7.80
2022-09-03T08:47:02.444Z,6.70
2022-09-03T08:49:43.262Z,7.47
2022-09-03T08:52:25.797Z,6.45
2022-09-03T08:55:09.078Z,7.03
2022-09-03T08:57:49.601Z,7.43
2022-09-03T09:00:21.464Z,6.72
2022-09-03T09:03:05.191Z,6.80
2022-09-03T09:08:22.387Z,5.80
2022-09-03T09:11:04.969Z,6.35
2022-09-03T09:13:44.666Z,7.65
2022-09-03T09:16:33.173Z,7.65
2022-09-03T09:19:23.420Z,5.35
2022-09-03T09:21:59.711Z,6.78
2022-09-03T09:24:38.946Z,7.32
2022-09-03T09:27:19.075Z,7.65
2022-09-03T09:30:09.174Z,6.53
2022-09-03T09:32:58.474Z,5.50
2022-09-03T09:36:04.157Z,5.70
2022-09-03T09:38:40.096Z,6.50
2022-09-03T09:42:01.594Z,5.13
2022-09-03T09:44:31.554Z,5.60
2022-09-03T09:47:16.356Z,5.82
2022-09-03T09:50:05.235Z,6.47
2022-09-03T09:52:41.376Z,5.35
2022-09-03T09:55:21.894Z,5.78
2022-09-03T09:58:10.945Z,4.85
2022-09-03T10:01:02.542Z,4.38
2022-09-03T10:03:39.535Z,4.80
2022-09-03T10:06:44.224Z,4.30
2022-09-03T10:09:22.994Z,3.95
2022-09-03T10:12:34.242Z,5.07
2022-09-03T10:15:18.534Z,5.20
2022-09-03T10:18:57.419Z,4.80
2022-09-03T10:28:50.455Z,5.03
2022-09-03T10:32:16.975Z,4.15
2022-09-03T10:35:24.192Z,5.22
2022-09-03T10:41:48.754Z,4.47
2022-09-03T10:45:13.392Z,4.32
2022-09-03T10:49:25.433Z,3.38
2022-09-03T11:15:12.606Z,3.60
2022-09-03T11:23:45.706Z,3.32
2022-09-03T11:25:30.776Z,4.85
2022-09-03T11:37:52.639Z,4.53
2022-09-03T12:18:07.211Z,4.05
2022-09-03T12:19:12.688Z,4.78
2022-09-03T12:23:12.579Z,4.15
2022-09-03T12:26:13.062Z,4.13
2022-09-03T12:30:54.514Z,4.35
2022-09-03T12:33:01.147Z,4.53
2022-09-03T12:36:08.970Z,4.78
2022-09-03T13:04:30.628Z,3.90
2022-09-03T13:08:15.955Z,3.85
2022-09-03T13:14:39.750Z,4.13
2022-09-03T13:21:49.290Z,3.67
2022-09-03T13:25:29.247Z,4.00
2022-09-03T13:33:29.329Z,3.78
2022-09-03T13:41:06.171Z,3.92
2022-09-03T13:45:27.818Z,3.75
2022-09-03T13:56:08.534Z,3.47
2022-09-03T13:59:08.516Z,3.35
2022-09-03T14:15:31.258Z,3.35
2022-09-03T14:18:49.145Z,3.65
2022-09-03T14:21:51.877Z,3.58
2022-09-03T14:24:54.229Z,3.60
2022-09-03T14:31:49.480Z,3.83
2022-09-03T14:39:06.205Z,4.05
2022-09-03T14:42:34.537Z,3.80
2022-09-03T14:49:54.085Z,3.13
2022-09-03T14:53:46.355Z,3.42
2022-09-03T14:56:52.524Z,3.90
2022-09-03T15:00:24.076Z,3.50
2022-09-03T15:06:59.256Z,4.30
2022-09-03T15:13:51.543Z,4.70
2022-09-03T15:16:35.097Z,4.22
2022-09-03T15:19:17.563Z,4.28
2022-09-03T15:22:05.755Z,4.50
2022-09-03T15:24:57.797Z,4.43
2022-09-03T15:28:01.517Z,4.00
2022-09-03T15:30:54.232Z,4.10
2022-09-03T15:33:32.075Z,3.90
2022-09-03T15:36:16.914Z,4.57
2022-09-03T15:38:59.377Z,4.60
2022-09-03T15:41:42.235Z,4.90
2022-09-03T15:44:27.002Z,4.93
2022-09-03T15:50:47.245Z,4.68
2022-09-03T15:53:39.143Z,4.70
2022-09-03T15:56:26.521Z,5.00
2022-09-03T15:59:23.924Z,4.28
2022-09-03T16:02:12.073Z,4.93
2022-09-03T16:05:07.729Z,4.80
2022-09-03T16:08:03.482Z,4.45
2022-09-03T16:10:48.035Z,4.90
2022-09-03T16:13:39.598Z,4.53
2022-09-03T16:16:28.613Z,4.80
2022-09-03T16:19:17.864Z,4.28
2022-09-03T16:21:55.923Z,4.68
2022-09-03T16:24:31.472Z,5.00
2022-09-03T16:27:05.242Z,4.50
2022-09-03T16:29:35.012Z,4.50
2022-09-03T16:32:19.409Z,4.28
2022-09-03T16:35:02.045Z,4.07
2022-09-03T16:40:17.032Z,3.53
2022-09-03T16:42:51.890Z,3.50
2022-09-03T16:45:40.792Z,3.17
2022-09-03T16:48:21.873Z,3.47
2022-09-03T16:51:07.851Z,3.35
2022-09-03T16:53:53.531Z,2.97
2022-09-03T16:56:38.763Z,3.30
2022-09-03T16:59:21.402Z,2.72
2022-09-03T17:02:13.872Z,2.67
2022-09-03T17:05:10.663Z,3.00
2022-09-03T17:07:59.103Z,3.08
2022-09-03T17:10:41.937Z,2.42
2022-09-03T17:15:50.823Z,2.33
2022-09-03T17:21:11.743Z,2.30
2022-09-03T17:24:02.442Z,2.72
2022-09-03T17:26:40.222Z,2.45
2022-09-03T17:29:26.402Z,2.58
2022-09-03T17:32:12.342Z,2.40
2022-09-03T17:34:54.851Z,2.13
2022-09-03T17:37:36.210Z,1.92
2022-09-03T17:40:20.162Z,2.30
2022-09-03T17:42:55.990Z,2.47
2022-09-03T17:45:39.441Z,2.47
2022-09-03T17:48:23.522Z,2.95
2022-09-03T17:51:01.922Z,2.45
2022-09-03T17:53:40.608Z,2.55
2022-09-03T17:56:13.130Z,2.50
2022-09-03T17:58:51.463Z,2.70
2022-09-03T18:01:26.198Z,2.50
2022-09-03T18:03:56.988Z,2.45
2022-09-03T18:06:34.982Z,2.90
2022-09-03T18:09:07.804Z,2.40
2022-09-03T18:11:39.772Z,2.40
2022-09-03T18:14:18.470Z,2.42
2022-09-03T18:16:53.364Z,2.40
2022-09-03T18:19:30.730Z,2.20
2022-09-03T18:22:21.003Z,1.75
2022-09-03T18:25:13.662Z,2.17
2022-09-03T18:28:03.250Z,1.52
2022-09-03T18:30:48.961Z,1.95
2022-09-03T18:33:40.261Z,1.33
2022-09-03T18:36:27.022Z,1.20
2022-09-03T18:39:19.145Z,0.98
2022-09-03T18:42:18.902Z,1.20
2022-09-03T18:45:22.013Z,1.10
2022-09-03T18:48:23.989Z,1.33
2022-09-03T18:51:17.523Z,1.20
2022-09-03T18:54:13.803Z,1.27
2022-09-03T18:57:06.561Z,1.08
2022-09-03T19:00:09.860Z,1.10
2022-09-03T19:03:06.090Z,0.98
2022-09-03T19:06:01.331Z,1.20
2022-09-03T19:08:55.111Z,1.50
2022-09-03T19:11:50.159Z,1.13
2022-09-03T19:14:48.300Z,0.93
2022-09-03T19:17:41.940Z,1.25
2022-09-03T19:20:33.780Z,1.20
2022-09-03T19:23:21.913Z,1.10
2022-09-03T19:26:08.585Z,1.30
2022-09-03T19:29:01.280Z,1.00
2022-09-03T19:32:00.030Z,1.10
2022-09-03T19:35:01.450Z,0.80
2022-09-03T19:37:53.621Z,1.00
2022-09-03T19:40:56.775Z,0.73
2022-09-03T19:43:51.957Z,0.90
2022-09-03T19:46:48.170Z,1.10
2022-09-03T19:49:45.021Z,0.82
2022-09-03T19:52:42.750Z,0.98
2022-09-03T19:55:34.901Z,1.08
2022-09-03T19:58:41.972Z,0.82
2022-09-03T20:01:27.619Z,0.85
2022-09-03T20:04:15.369Z,1.00
2022-09-03T20:07:04.266Z,0.40
2022-09-03T20:09:56.380Z,0.70
2022-09-03T20:12:26.313Z,0.70
2022-09-03T20:14:54.981Z,1.33
2022-09-03T20:17:35.372Z,1.08
2022-09-03T20:20:14.572Z,0.98
2022-09-03T20:22:52.583Z,0.98
2022-09-03T20:25:38.040Z,0.85
2022-09-03T20:28:16.343Z,1.45
2022-09-03T20:30:51.527Z,0.77
2022-09-03T20:33:31.883Z,1.10
2022-09-03T20:36:13.248Z,0.82
2022-09-03T20:38:57.828Z,0.70
2022-09-03T20:41:34.260Z,0.95
2022-09-03T20:44:22.070Z,0.82
2022-09-03T20:47:03.257Z,0.90
2022-09-03T20:49:41.664Z,1.02
2022-09-03T20:52:18.526Z,0.80
2022-09-03T20:55:04.110Z,0.77
2022-09-03T20:57:44.940Z,0.95
2022-09-03T21:00:18.465Z,1.20
2022-09-03T21:05:35.660Z,1.02
2022-09-03T21:08:13.611Z,0.85
2022-09-03T21:10:52.113Z,1.00
2022-09-03T21:13:33.092Z,1.08
2022-09-03T21:16:20.502Z,1.20
2022-09-03T21:19:00.241Z,0.82
2022-09-03T21:21:40.690Z,1.42
2022-09-03T21:24:15.710Z,0.70
2022-09-03T21:26:52.001Z,1.30
2022-09-03T21:29:26.691Z,1.10
2022-09-03T21:32:04.220Z,1.10
2022-09-03T21:34:39.011Z,0.95
2022-09-03T21:37:11.889Z,0.95
2022-09-03T21:39:44.382Z,1.30
2022-09-03T21:42:23.190Z,0.98
2022-09-03T21:44:57.490Z,1.10
2022-09-03T21:47:28.110Z,1.10
2022-09-03T21:50:14.410Z,0.90
2022-09-03T21:52:51.531Z,1.02
2022-09-03T21:55:23.742Z,1.00
2022-09-03T21:58:08.062Z,1.10
2022-09-03T22:00:37.785Z,1.35
2022-09-03T22:03:09.559Z,1.20
2022-09-03T22:05:49.754Z,1.00
2022-09-03T22:08:24.540Z,0.80
2022-09-03T22:11:00.202Z,0.90
2022-09-03T22:13:33.411Z,1.08
2022-09-03T22:16:13.457Z,1.05
2022-09-03T22:18:44.234Z,0.90
2022-09-03T22:21:19.713Z,1.00
2022-09-03T22:24:04.271Z,0.82
2022-09-03T22:26:45.688Z,1.30
2022-09-03T22:29:28.380Z,1.27
2022-09-03T22:32:04.050Z,1.10
2022-09-03T22:34:52.811Z,1.30
2022-09-03T22:37:33.929Z,1.33
2022-09-03T22:40:13.191Z,1.42
2022-09-03T22:42:57.272Z,1.25
2022-09-03T22:45:41.514Z,1.13
2022-09-03T22:48:21.851Z,3.03
2022-09-03T22:50:57.141Z,1.38
2022-09-03T22:53:40.912Z,1.42
2022-09-03T22:58:43.787Z,1.55
2022-09-03T23:01:18.960Z,1.17
2022-09-03T23:03:59.746Z,1.67
2022-09-03T23:06:33.591Z,1.23
2022-09-03T23:09:05.640Z,1.45
2022-09-03T23:11:39.626Z,1.00
2022-09-03T23:14:12.438Z,1.27
2022-09-03T23:16:47.058Z,1.33
2022-09-03T23:21:53.599Z,1.83
2022-09-03T23:24:28.270Z,1.73
2022-09-03T23:26:56.493Z,1.33
2022-09-03T23:29:30.161Z,1.05
2022-09-03T23:32:01.304Z,1.33
2022-09-03T23:34:29.592Z,1.40
2022-09-03T23:37:33.375Z,1.50
2022-09-03T23:40:22.381Z,1.33
2022-09-03T23:43:08.701Z,1.52
2022-09-03T23:45:48.187Z,1.67
2022-09-03T23:48:29.953Z,2.03
2022-09-03T23:51:09.230Z,1.40
2022-09-03T23:53:48.651Z,1.65
2022-09-03T23:56:41.370Z,1.48
2022-09-03T23:59:17.440Z,1.73
